Time;durP1;ratioP1;P1;durP2;ratioP2;P2;SDS_P1;SDS_P2;PMS_P1;PMS_P2;Temp;Humidity;BMP_temperature;BMP_pressure;BME280_temperature;BME280_humidity;BME280_pressure;Samples;Min_cycle;Max_cycle;Signal;HPM_P1;HPM_P2
2023/09/03 00:01:31;;;;;;;7.68;6.88;;;;;;;21.48;72.62;65246.38;5050788;28;20675;-55
2023/09/03 00:03:58;;;;;;;6.90;6.15;;;;;;;21.14;72.99;65208.78;5051105;28;20271;-51
2023/09/03 00:06:24;;;;;;;6.90;5.85;;;;;;;20.89;72.96;65179.09;5050970;28;20240;-50
2023/09/03 00:08:50;;;;;;;10.25;6.47;;;;;;;20.78;71.50;65166.94;5032809;28;20690;-53
2023/09/03 00:11:16;;;;;;;7.25;5.72;;;;;;;20.70;71.39;65158.09;5050871;28;20296;-51
2023/09/03 00:13:43;;;;;;;7.72;6.13;;;;;;;20.49;72.66;65137.44;5050884;28;20204;-55
2023/09/03 00:16:10;;;;;;;6.88;6.00;;;;;;;20.27;73.56;65113.69;5050490;28;20217;-51
2023/09/03 00:18:39;;;;;;;7.35;5.97;;;;;;;20.21;74.69;65104.50;5032845;28;20276;-51
2023/09/03 00:21:06;;;;;;;6.47;5.88;;;;;;;20.25;75.96;65110.94;5032466;28;20205;-51
2023/09/03 00:23:32;;;;;;;6.78;6.07;;;;;;;20.30;75.25;65116.47;5050761;28;20284;-50
2023/09/03 00:25:59;;;;;;;6.30;5.60;;;;;;;20.13;76.16;65098.22;5050782;28;20252;-55
2023/09/03 00:28:26;;;;;;;7.45;6.60;;;;;;;20.35;75.63;65119.41;5050583;28;20213;-52
2023/09/03 00:31:10;;;;;;;8.68;6.40;;;;;;;20.36;74.38;65123.63;5049915;28;20308;-52
2023/09/03 00:33:37;;;;;;;8.60;6.78;;;;;;;20.34;75.00;65123.97;5049545;28;20170;-51
2023/09/03 00:36:05;;;;;;;7.22;6.10;;;;;;;20.42;75.32;65130.25;5050724;28;20283;-51
2023/09/03 00:38:31;;;;;;;6.72;6.10;;;;;;;20.35;75.67;65121.97;5050472;28;20288;-50
2023/09/03 00:40:57;;;;;;;10.80;6.00;;;;;;;20.28;76.02;65114.78;5050258;28;20202;-51
2023/09/03 00:43:23;;;;;;;9.00;6.22;;;;;;;20.37;76.04;65124.19;5050546;28;20200;-52
2023/09/03 00:45:49;;;;;;;8.73;7.13;;;;;;;20.42;74.66;65129.72;5032385;28;20205;-52
2023/09/03 00:48:26;;;;;;;10.07;6.60;;;;;;;20.35;74.11;65121.97;5050110;28;20531;-50
2023/09/03 00:50:52;;;;;;;7.40;6.70;;;;;;;20.23;75.47;65109.28;5050602;28;20197;-51
2023/09/03 00:53:20;;;;;;;7.72;6.28;;;;;;;20.27;75.09;65110.59;5050343;28;20281;-51
2023/09/03 00:55:46;;;;;;;8.02;6.72;;;;;;;20.42;75.32;65127.16;5049885;28;20220;-51
2023/09/03 00:58:14;;;;;;;9.43;6.22;;;;;;;20.32;75.47;65121.78;5050072;28;20195;-52
2023/09/03 01:00:40;;;;;;;7.75;6.25;;;;;;;20.17;76.13;65102.06;5049800;28;20725;-52
2023/09/03 01:03:06;;;;;;;7.60;6.38;;;;;;;20.23;76.62;65106.16;5050038;28;20217;-52
2023/09/03 01:05:31;;;;;;;7.55;6.85;;;;;;;20.17;76.68;65099.50;5031937;28;20684;-52
2023/09/03 01:07:59;;;;;;;7.00;6.30;;;;;;;20.36;75.47;65123.63;5049841;28;20591;-55
2023/09/03 01:10:53;;;;;;;8.70;6.65;;;;;;;20.09;76.57;65096.34;5050210;28;20293;-51
2023/09/03 01:13:26;;;;;;;6.75;6.10;;;;;;;20.08;75.72;65095.78;5018986;28;20240;-52
2023/09/03 01:15:53;;;;;;;8.57;6.32;;;;;;;19.97;77.07;65078.53;5050015;28;20205;-51
2023/09/03 01:18:21;;;;;;;9.02;6.32;;;;;;;19.91;77.21;65071.34;5049889;28;20375;-50
2023/09/03 01:21:14;;;;;;;6.97;5.85;;;;;;;19.71;78.69;65054.94;5048458;28;20325;-51
2023/09/03 01:23:42;;;;;;;8.27;5.55;;;;;;;19.70;79.07;65050.72;5049804;28;20204;-50
2023/09/03 01:26:24;;;;;;;7.38;6.53;;;;;;;19.43;80.84;65023.47;5049593;28;20716;-52
2023/09/03 01:28:52;;;;;;;8.25;6.78;;;;;;;19.44;81.19;65025.13;5049748;28;20244;-51
2023/09/03 01:31:19;;;;;;;6.82;6.13;;;;;;;19.37;82.52;65014.84;5049624;28;20220;-51
2023/09/03 01:33:47;;;;;;;7.82;7.00;;;;;;;19.42;81.43;65017.78;5050847;28;20232;-52
2023/09/03 01:36:14;;;;;;;7.07;6.38;;;;;;;19.52;81.94;65030.84;5035445;28;20209;-50
2023/09/03 01:38:40;;;;;;;10.15;6.20;;;;;;;19.54;82.23;65033.03;5053154;28;20205;-51
2023/09/03 01:41:07;;;;;;;8.18;6.40;;;;;;;19.52;81.25;65028.28;5053091;28;20190;-52
2023/09/03 01:43:33;;;;;;;9.25;6.90;;;;;;;19.52;81.20;65033.94;5053116;28;20201;-54
2023/09/03 01:46:12;;;;;;;7.65;5.72;;;;;;;19.54;81.53;65036.16;5053068;28;20300;-55
2023/09/03 01:49:15;;;;;;;6.72;6.03;;;;;;;19.51;81.29;65030.31;5052594;28;20209;-52
2023/09/03 01:52:05;;;;;;;7.47;6.10;;;;;;;19.54;81.37;65031.03;5019300;28;20250;-50
2023/09/03 01:54:46;;;;;;;7.55;6.75;;;;;;;19.50;81.37;65029.19;5050646;28;20197;-51
2023/09/03 01:57:18;;;;;;;7.50;6.70;;;;;;;19.56;80.84;65035.81;5051011;28;20307;-51
2023/09/03 01:59:53;;;;;;;7.32;6.57;;;;;;;19.56;81.24;65032.69;5051895;28;20194;-52
2023/09/03 02:02:20;;;;;;;6.95;6.28;;;;;;;19.56;80.42;65038.38;5034726;28;20221;-52
2023/09/03 02:04:46;;;;;;;8.02;6.10;;;;;;;19.56;80.42;65033.25;5052870;28;20672;-51
2023/09/03 02:07:12;;;;;;;9.15;6.60;;;;;;;19.55;81.79;65034.72;5052584;28;20213;-53
2023/09/03 02:09:38;;;;;;;6.90;6.00;;;;;;;19.63;81.49;65041.00;5052766;28;20712;-53
2023/09/03 02:12:06;;;;;;;7.38;6.32;;;;;;;19.61;81.19;65043.91;5052074;28;20244;-51
2023/09/03 02:14:31;;;;;;;6.95;6.25;;;;;;;19.60;81.88;65040.22;5018278;28;20259;-52
2023/09/03 02:16:57;;;;;;;7.25;6.55;;;;;;;19.55;82.45;65034.72;5052997;28;20213;-52
2023/09/03 02:19:22;;;;;;;7.03;6.03;;;;;;;19.50;82.67;65031.75;5034730;28;20582;-50
2023/09/03 02:21:49;;;;;;;6.60;5.97;;;;;;;19.74;80.46;65053.13;5052350;28;20303;-55
2023/09/03 02:24:15;;;;;;;8.52;6.00;;;;;;;19.47;82.08;65025.88;5052585;28;20293;-55
2023/09/03 02:26:42;;;;;;;6.78;6.13;;;;;;;19.47;82.45;65028.44;5052586;28;20296;-52
2023/09/03 02:29:08;;;;;;;7.63;6.13;;;;;;;19.52;82.35;65033.38;5052448;28;20223;-52
2023/09/03 02:31:34;;;;;;;7.25;6.55;;;;;;;19.82;80.48;65063.97;5052330;28;20316;-53
2023/09/03 02:34:00;;;;;;;6.93;6.22;;;;;;;19.68;80.76;65051.06;5052449;28;20288;-52
2023/09/03 02:36:26;;;;;;;7.43;6.00;;;;;;;19.64;81.62;65044.66;5034254;28;20221;-54
2023/09/03 02:39:03;;;;;;;6.32;5.72;;;;;;;19.75;80.98;65056.81;5052323;28;20224;-51
2023/09/03 02:41:32;;;;;;;8.13;7.03;;;;;;;19.75;80.80;65056.25;5052548;28;20691;-51
2023/09/03 02:43:58;;;;;;;9.07;6.53;;;;;;;19.58;81.70;65040.56;5052078;28;20292;-52
2023/09/03 02:46:24;;;;;;;9.80;6.93;;;;;;;19.50;82.70;65026.63;5052228;28;20582;-51
2023/09/03 02:48:50;;;;;;;7.78;6.63;;;;;;;19.48;83.21;65026.97;5052203;28;20252;-52
2023/09/03 02:51:16;;;;;;;10.25;7.70;;;;;;;19.42;82.93;65017.78;5052051;28;20240;-51
2023/09/03 02:53:43;;;;;;;9.85;7.32;;;;;;;19.31;84.04;65008.19;5052074;28;20280;-51
2023/09/03 02:56:09;;;;;;;7.53;6.53;;;;;;;19.24;83.74;65003.00;5051976;28;20208;-52
2023/09/03 02:58:35;;;;;;;7.75;6.88;;;;;;;19.26;84.37;65003.22;5052099;28;20201;-51
2023/09/03 03:01:06;;;;;;;10.35;7.35;;;;;;;19.21;84.56;64995.13;5052248;28;20227;-52
2023/09/03 03:03:32;;;;;;;9.32;6.47;;;;;;;19.23;83.34;64996.78;5051855;28;20217;-52
2023/09/03 03:05:57;;;;;;;9.77;6.70;;;;;;;19.12;83.49;64989.78;5052110;28;20624;-51
2023/09/03 03:08:22;;;;;;;7.35;6.40;;;;;;;18.98;84.33;64971.75;5017479;28;20222;-52
2023/09/03 03:10:50;;;;;;;9.25;7.10;;;;;;;18.90;83.68;64965.50;5033511;28;20247;-54
2023/09/03 03:13:16;;;;;;;7.40;6.40;;;;;;;18.87;83.66;64959.63;5051613;28;20215;-51
2023/09/03 03:15:42;;;;;;;6.85;6.18;;;;;;;18.79;84.55;64950.78;5051785;28;20190;-52
2023/09/03 03:18:07;;;;;;;7.22;6.53;;;;;;;18.90;84.53;64962.94;5051786;28;20582;-51
2023/09/03 03:20:33;;;;;;;11.82;6.50;;;;;;;19.02;84.38;64976.19;5051756;28;20668;-51
2023/09/03 03:22:58;;;;;;;7.57;6.32;;;;;;;18.92;84.19;64965.69;5051561;28;20224;-51
2023/09/03 03:25:24;;;;;;;7.07;6.38;;;;;;;18.81;83.87;64953.56;5051798;28;20205;-53
2023/09/03 03:27:50;;;;;;;7.22;6.40;;;;;;;18.76;84.05;64950.03;5051539;28;20594;-50
2023/09/03 03:30:15;;;;;;;8.68;7.38;;;;;;;18.95;83.04;64968.44;5033638;28;20769;-52
2023/09/03 03:32:41;;;;;;;7.88;6.60;;;;;;;19.00;83.74;64974.53;5051467;28;20206;-57
2023/09/03 03:35:07;;;;;;;7.60;6.75;;;;;;;18.84;83.54;64951.22;5051428;28;20660;-51
2023/09/03 03:37:32;;;;;;;8.18;5.88;;;;;;;18.84;84.33;64956.31;5033731;28;20213;-51
2023/09/03 03:39:58;;;;;;;8.38;6.35;;;;;;;18.85;84.18;64957.97;5051364;28;20220;-51
2023/09/03 03:42:24;;;;;;;8.77;6.80;;;;;;;18.89;82.60;64959.28;5051311;28;20253;-52
2023/09/03 03:44:50;;;;;;;9.27;6.50;;;;;;;18.92;82.37;64967.69;5051316;28;20260;-51
2023/09/03 03:47:15;;;;;;;8.40;6.70;;;;;;;18.84;82.80;64959.44;5051664;28;20714;-54
2023/09/03 03:49:41;;;;;;;8.30;6.32;;;;;;;18.89;83.41;64964.38;5051436;28;20224;-57
2023/09/03 03:52:06;;;;;;;8.48;6.55;;;;;;;18.95;82.39;64968.44;5051393;28;20213;-54
2023/09/03 03:54:33;;;;;;;6.78;5.90;;;;;;;18.77;82.65;64946.03;5051038;28;20189;-55
2023/09/03 03:56:58;;;;;;;6.55;5.95;;;;;;;18.79;82.61;64953.34;5032367;28;20720;-51
2023/09/03 03:59:24;;;;;;;8.27;6.18;;;;;;;18.71;83.91;64945.06;5051052;28;20198;-53
2023/09/03 04:01:49;;;;;;;8.38;6.57;;;;;;;18.52;84.38;64924.13;5050958;28;20296;-51
2023/09/03 04:04:15;;;;;;;7.25;6.53;;;;;;;18.56;84.03;64928.53;5051011;28;20212;-51
2023/09/03 04:06:40;;;;;;;8.05;6.22;;;;;;;18.42;84.13;64910.53;5050652;28;20627;-63
2023/09/03 04:09:12;;;;;;;7.93;6.55;;;;;;;18.40;84.48;64908.84;5050182;28;20209;-51
2023/09/03 04:11:38;;;;;;;9.48;6.57;;;;;;;18.57;83.70;64929.06;5050807;28;20304;-52
2023/09/03 04:14:05;;;;;;;7.10;6.40;;;;;;;18.64;83.91;64936.81;5050725;28;20252;-52
2023/09/03 04:16:31;;;;;;;8.82;6.65;;;;;;;18.73;84.78;64944.72;5051108;28;20687;-52
2023/09/03 04:18:57;;;;;;;9.43;7.50;;;;;;;18.91;84.44;64961.47;5050824;28;20209;-52
2023/09/03 04:21:25;;;;;;;9.02;6.88;;;;;;;19.01;83.65;64975.63;5050798;28;20217;-51
2023/09/03 04:23:50;;;;;;;7.38;6.43;;;;;;;19.19;82.47;64992.38;5032654;28;20205;-51
2023/09/03 04:26:16;;;;;;;8.52;7.13;;;;;;;19.20;82.12;64996.03;5032666;28;20210;-52
2023/09/03 04:28:42;;;;;;;10.05;7.55;;;;;;;19.19;82.20;64997.50;5050684;28;20688;-52
2023/09/03 04:31:08;;;;;;;8.90;8.00;;;;;;;19.10;82.95;64985.00;5050762;28;20272;-51
2023/09/03 04:33:37;;;;;;;10.40;6.93;;;;;;;19.09;82.23;64987.00;5050511;28;20194;-51
2023/09/03 04:36:04;;;;;;;7.63;6.82;;;;;;;19.17;82.12;64992.72;5050395;28;20209;-51
2023/09/03 04:38:30;;;;;;;7.22;6.53;;;;;;;19.18;80.44;64991.84;5050616;28;20236;-52
2023/09/03 04:40:56;;;;;;;8.98;6.28;;;;;;;19.09;80.86;64984.44;5050478;28;20212;-53
2023/09/03 04:43:23;;;;;;;10.75;6.50;;;;;;;19.06;80.67;64981.16;5050340;28;20182;-51
2023/09/03 04:45:52;;;;;;;8.80;6.63;;;;;;;18.96;81.56;64972.13;5032485;28;20288;-51
2023/09/03 04:48:19;;;;;;;9.55;7.20;;;;;;;18.92;82.46;64965.16;5050516;28;20233;-55
2023/09/03 04:50:45;;;;;;;9.40;7.15;;;;;;;19.04;81.52;64976.38;5049324;28;20204;-57
2023/09/03 04:53:13;;;;;;;7.60;6.57;;;;;;;19.04;81.91;64978.38;5050104;28;20292;-51
2023/09/03 04:55:40;;;;;;;7.47;6.68;;;;;;;19.18;81.47;64993.84;5050139;28;20208;-51
2023/09/03 04:58:07;;;;;;;10.98;6.90;;;;;;;19.01;83.01;64977.63;5049917;28;20220;-50
2023/09/03 05:00:33;;;;;;;7.47;6.03;;;;;;;19.04;83.26;64980.94;5050198;28;20205;-51
2023/09/03 05:03:01;;;;;;;6.53;5.93;;;;;;;18.86;84.45;64961.06;5049886;28;20266;-51
2023/09/03 05:05:27;;;;;;;10.73;6.43;;;;;;;18.78;85.64;64949.69;5049913;28;20280;-52
2023/09/03 05:07:52;;;;;;;6.38;5.78;;;;;;;18.71;86.80;64941.97;5030957;28;20213;-51
2023/09/03 05:10:18;;;;;;;8.30;6.50;;;;;;;18.67;87.41;64940.66;5049674;28;20571;-53
2023/09/03 05:12:44;;;;;;;7.97;6.70;;;;;;;18.56;88.51;64927.97;5032280;28;20204;-53
2023/09/03 05:15:11;;;;;;;9.73;6.93;;;;;;;18.53;89.50;64922.09;5050054;28;20632;-51
2023/09/03 05:17:40;;;;;;;9.95;7.32;;;;;;;18.44;90.23;64912.75;5050138;28;20297;-51
2023/09/03 05:20:10;;;;;;;7.13;6.43;;;;;;;18.62;89.75;64932.03;5049781;28;20193;-57
2023/09/03 05:22:35;;;;;;;7.82;6.97;;;;;;;18.67;89.70;64937.56;5049891;28;20228;-51
2023/09/03 05:25:01;;;;;;;6.63;5.88;;;;;;;18.72;90.31;64943.63;5049641;28;20190;-51
2023/09/03 05:27:30;;;;;;;9.10;7.07;;;;;;;18.78;90.51;64952.25;5049582;28;20228;-52
2023/09/03 05:29:56;;;;;;;7.90;7.10;;;;;;;18.68;91.68;64939.22;5049241;28;20198;-52
2023/09/03 05:32:22;;;;;;;8.55;6.75;;;;;;;18.75;91.92;64946.38;5049593;28;20289;-53
2023/09/03 05:34:47;;;;;;;9.38;6.78;;;;;;;18.77;91.58;64951.13;5049680;28;20219;-52
2023/09/03 05:37:13;;;;;;;9.27;7.00;;;;;;;18.75;92.17;64948.94;5048170;28;20319;-50
2023/09/03 05:39:39;;;;;;;8.20;7.30;;;;;;;18.97;91.07;64973.75;5031733;28;20644;-51
2023/09/03 05:42:05;;;;;;;8.40;7.00;;;;;;;18.91;91.16;64966.59;5049867;28;20214;-52
2023/09/03 05:44:30;;;;;;;9.45;6.78;;;;;;;19.10;90.41;64985.56;5049728;28;20377;-53
2023/09/03 05:46:55;;;;;;;8.40;7.10;;;;;;;18.98;91.24;64972.31;5049700;28;20619;-51
2023/09/03 05:49:21;;;;;;;7.50;6.68;;;;;;;19.04;90.68;64980.94;5031582;28;20209;-52
2023/09/03 05:51:46;;;;;;;7.47;6.43;;;;;;;19.05;90.92;64982.03;5049708;28;20709;-51
2023/09/03 05:54:12;;;;;;;7.43;6.63;;;;;;;19.13;90.80;64988.88;5049545;28;20190;-52
2023/09/03 05:56:37;;;;;;;8.60;7.68;;;;;;;19.20;90.13;64993.50;5049294;28;20707;-51
2023/09/03 05:59:08;;;;;;;8.95;7.20;;;;;;;19.29;89.76;65006.53;5049565;28;20197;-51
2023/09/03 06:01:34;;;;;;;7.70;6.60;;;;;;;19.52;87.27;65030.84;5031584;28;20714;-51
2023/09/03 06:04:09;;;;;;;8.52;6.72;;;;;;;19.53;86.92;65032.50;5049351;28;20675;-51
2023/09/03 06:06:39;;;;;;;7.25;6.28;;;;;;;19.66;85.93;65049.41;5049752;28;20212;-51
2023/09/03 06:09:06;;;;;;;8.70;6.70;;;;;;;19.67;86.10;65050.53;5049384;28;20323;-52
2023/09/03 06:11:35;;;;;;;12.60;7.57;;;;;;;19.70;85.26;65048.72;5031546;28;20310;-52
2023/09/03 06:14:00;;;;;;;7.30;6.60;;;;;;;19.98;82.72;65079.63;5049378;28;20210;-51
2023/09/03 06:16:26;;;;;;;8.85;7.93;;;;;;;19.94;83.59;65077.78;5031647;28;20300;-51
2023/09/03 06:18:52;;;;;;;8.93;7.40;;;;;;;19.80;83.61;65064.88;5049417;28;20200;-51
2023/09/03 06:21:19;;;;;;;11.40;8.15;;;;;;;19.79;83.67;65061.22;5051869;28;20206;-52
2023/09/03 06:23:45;;;;;;;11.70;8.85;;;;;;;19.85;83.23;65070.41;5034827;28;20250;-52
2023/09/03 06:26:11;;;;;;;10.82;8.30;;;;;;;19.87;83.68;65069.50;5053027;28;20288;-52
2023/09/03 06:28:36;;;;;;;9.80;8.80;;;;;;;19.99;82.87;65080.19;5052680;28;20335;-52
2023/09/03 06:31:02;;;;;;;12.43;9.57;;;;;;;20.15;82.55;65102.44;5052609;28;20197;-52
2023/09/03 06:33:27;;;;;;;9.27;8.27;;;;;;;20.28;82.44;65114.25;5052592;28;20275;-51
2023/09/03 06:35:54;;;;;;;10.00;8.63;;;;;;;20.30;81.23;65117.00;5052832;28;20281;-51
2023/09/03 06:38:19;;;;;;;13.40;8.57;;;;;;;20.48;80.43;65136.91;5052433;28;20644;-51
2023/09/03 06:40:44;;;;;;;9.35;8.35;;;;;;;20.73;78.57;65163.97;5052539;28;20223;-56
2023/09/03 06:43:10;;;;;;;12.10;7.60;;;;;;;20.64;79.72;65151.47;5052444;28;20251;-52
2023/09/03 06:45:35;;;;;;;11.05;7.82;;;;;;;20.64;79.37;65152.03;5049298;28;20642;-52
2023/09/03 06:48:01;;;;;;;15.18;8.38;;;;;;;20.65;79.29;65155.13;5052209;28;20249;-51
2023/09/03 06:50:26;;;;;;;9.93;8.70;;;;;;;20.68;79.25;65159.03;5052029;28;20194;-52
2023/09/03 06:52:51;;;;;;;7.93;7.07;;;;;;;20.67;78.57;65159.91;5052231;28;20599;-52
2023/09/03 06:55:17;;;;;;;9.57;7.88;;;;;;;20.82;78.53;65174.50;5052413;28;20281;-52
2023/09/03 06:57:43;;;;;;;10.25;7.93;;;;;;;20.99;77.84;65192.72;5052250;28;20217;-55
2023/09/03 07:00:09;;;;;;;37.53;12.07;;;;;;;21.13;76.98;65208.22;5034343;28;20580;-52
2023/09/03 07:02:35;;;;;;;11.80;7.65;;;;;;;21.01;78.37;65192.38;5052243;28;20209;-52
2023/09/03 07:05:01;;;;;;;8.68;7.78;;;;;;;21.01;77.47;65197.50;5050766;28;20243;-52
2023/09/03 07:07:27;;;;;;;11.70;7.45;;;;;;;21.16;77.74;65208.97;5033910;28;20201;-52
2023/09/03 07:09:53;;;;;;;21.55;9.15;;;;;;;21.16;76.62;65211.53;5052196;28;20201;-52
2023/09/03 07:12:19;;;;;;;14.30;7.95;;;;;;;21.46;75.66;65244.72;5052176;28;20214;-51
2023/09/03 07:14:46;;;;;;;12.25;8.15;;;;;;;21.70;74.34;65268.72;5051772;28;20208;-51
2023/09/03 07:17:12;;;;;;;11.85;7.50;;;;;;;21.55;75.91;65254.66;5052019;28;20304;-52
2023/09/03 07:19:38;;;;;;;9.85;8.23;;;;;;;21.52;75.95;65251.38;5051922;28;20201;-51
2023/09/03 07:22:04;;;;;;;9.52;8.45;;;;;;;21.55;75.02;65254.66;5033712;28;20201;-55
2023/09/03 07:24:30;;;;;;;13.15;8.00;;;;;;;21.71;75.03;65269.81;5051778;28;20332;-52
2023/09/03 07:26:55;;;;;;;15.77;8.27;;;;;;;21.87;73.87;65291.56;5051685;28;20295;-52
2023/09/03 07:29:21;;;;;;;11.35;8.40;;;;;;;22.19;72.16;65321.84;5051607;28;20217;-53
2023/09/03 07:31:46;;;;;;;52.22;31.83;;;;;;;22.19;72.82;65322.41;5050448;28;20687;-58
2023/09/03 07:34:13;;;;;;;16.48;10.73;;;;;;;22.17;72.86;65322.19;5051597;28;20198;-52
2023/09/03 07:36:40;;;;;;;14.10;10.00;;;;;;;22.19;72.49;65324.97;5033529;28;20235;-51
2023/09/03 07:39:06;;;;;;;9.70;6.53;;;;;;;22.26;71.56;65330.13;5051366;28;20529;-51
2023/09/03 07:41:32;;;;;;;10.00;7.65;;;;;;;22.34;71.29;65338.44;5051265;28;20304;-51
2023/09/03 07:43:59;;;;;;;17.63;11.30;;;;;;;22.44;72.33;65350.06;5051351;28;20692;-50
2023/09/03 07:46:25;;;;;;;10.52;7.68;;;;;;;22.54;70.34;65361.13;5051251;28;20205;-51
2023/09/03 07:48:51;;;;;;;11.77;7.53;;;;;;;22.74;69.73;65382.19;5051353;28;20221;-51
2023/09/03 07:51:17;;;;;;;11.88;7.13;;;;;;;23.10;77.40;65424.66;5033544;28;20243;-50
2023/09/03 07:53:43;;;;;;;8.07;6.90;;;;;;;23.70;71.83;65488.00;5033412;28;20198;-53
2023/09/03 07:56:09;;;;;;;8.40;7.20;;;;;;;24.15;67.29;65535.34;5051310;28;20255;-55
2023/09/03 07:58:34;;;;;;;7.93;6.78;;;;;;;24.22;64.13;65543.09;5051221;28;20669;-50
2023/09/03 08:01:00;;;;;;;9.20;7.78;;;;;;;24.24;63.63;65550.47;5051574;28;20224;-49
2023/09/03 08:03:33;;;;;;;8.50;7.60;;;;;;;24.38;63.10;65563.41;5051270;28;20579;-50
2023/09/03 08:05:59;;;;;;;11.82;7.32;;;;;;;24.29;61.65;65553.44;5051224;28;20473;-51
2023/09/03 08:08:25;;;;;;;8.32;7.45;;;;;;;24.36;60.32;65560.66;5050888;28;20217;-56
2023/09/03 08:10:51;;;;;;;10.55;6.90;;;;;;;24.41;60.98;65566.19;5051039;28;20209;-51
2023/09/03 08:13:18;;;;;;;7.32;6.20;;;;;;;24.78;58.02;65607.25;5033227;28;20312;-51
2023/09/03 08:15:43;;;;;;;8.52;7.05;;;;;;;24.72;61.56;65603.16;5051175;28;20219;-50
2023/09/03 08:18:09;;;;;;;9.70;6.65;;;;;;;24.91;60.27;65619.66;5050755;28;20592;-50
2023/09/03 08:20:34;;;;;;;7.32;6.45;;;;;;;25.24;57.15;65658.31;5050999;28;20205;-51
2023/09/03 08:23:00;;;;;;;8.85;6.85;;;;;;;25.47;58.75;65680.72;5050753;28;20213;-51
2023/09/03 08:25:28;;;;;;;17.55;10.38;;;;;;;25.67;64.47;65706.03;5050900;28;20292;-56
2023/09/03 08:27:53;;;;;;;11.80;6.25;;;;;;;25.40;53.12;65675.50;5050817;28;20289;-52
2023/09/03 08:30:18;;;;;;;7.43;5.60;;;;;;;25.49;51.08;65682.94;5050759;28;20711;-52
2023/09/03 08:32:44;;;;;;;8.43;6.53;;;;;;;25.66;53.10;65701.78;5050688;28;20205;-53
2023/09/03 08:35:09;;;;;;;28.80;11.13;;;;;;;25.65;50.97;65703.28;5050488;28;20204;-51
2023/09/03 08:37:35;;;;;;;7.13;6.20;;;;;;;26.02;49.60;65744.34;5050692;28;20688;-51
2023/09/03 08:40:01;;;;;;;8.05;6.28;;;;;;;26.12;49.90;65754.94;5050761;28;20296;-51
2023/09/03 08:42:26;;;;;;;7.72;6.05;;;;;;;26.33;48.01;65776.22;5050455;28;20216;-53
2023/09/03 08:45:01;;;;;;;14.50;5.70;;;;;;;26.54;50.83;65802.13;5050686;28;20198;-52
2023/09/03 08:47:27;;;;;;;6.80;5.75;;;;;;;27.10;47.34;65861.25;5050572;28;20213;-55
2023/09/03 08:49:53;;;;;;;7.53;5.72;;;;;;;27.30;45.34;65882.94;5050614;28;20254;-54
2023/09/03 08:52:19;;;;;;;7.72;5.15;;;;;;;27.48;45.70;65902.97;5050196;28;20217;-54
2023/09/03 08:54:45;;;;;;;5.85;5.35;;;;;;;27.72;44.88;65931.69;5032526;28;20209;-51
2023/09/03 08:57:11;;;;;;;12.68;6.28;;;;;;;27.47;43.76;65901.31;5050191;28;20223;-51
2023/09/03 08:59:38;;;;;;;8.82;6.20;;;;;;;27.68;41.71;65924.66;5050531;28;20301;-56
2023/09/03 09:02:11;;;;;;;6.65;5.43;;;;;;;28.04;40.74;65967.28;5050780;28;20241;-52
2023/09/03 09:04:38;;;;;;;5.03;4.63;;;;;;;28.37;40.12;66001.44;5050616;28;20201;-53
2023/09/03 09:07:04;;;;;;;6.47;5.13;;;;;;;28.68;39.97;66035.97;5050236;28;20213;-52
2023/09/03 09:09:31;;;;;;;13.95;8.55;;;;;;;28.39;40.15;66003.66;5050160;28;20209;-52
2023/09/03 09:12:32;;;;;;;13.85;8.43;;;;;;;28.28;40.43;65990.88;5050363;28;20220;-55
2023/09/03 09:15:03;;;;;;;16.65;7.53;;;;;;;28.46;38.95;66013.50;5050354;28;20200;-52
2023/09/03 09:17:36;;;;;;;16.30;6.60;;;;;;;28.15;38.87;65980.09;5049981;28;20295;-51
2023/09/03 09:20:01;;;;;;;13.25;6.15;;;;;;;28.69;38.36;66036.50;5050039;28;20687;-51
2023/09/03 09:22:27;;;;;;;10.90;7.13;;;;;;;29.23;36.54;66098.69;5049832;28;20203;-51
2023/09/03 09:24:54;;;;;;;7.47;5.30;;;;;;;28.36;37.74;66002.34;5050031;28;20285;-53
2023/09/03 09:27:21;;;;;;;43.40;15.38;;;;;;;28.97;37.41;66067.66;5049941;28;20219;-52
2023/09/03 09:29:48;;;;;;;8.48;6.95;;;;;;;29.47;36.79;66125.44;5032003;28;20217;-51
2023/09/03 09:32:21;;;;;;;5.90;5.15;;;;;;;29.62;34.40;66139.53;5031682;28;20304;-53
2023/09/03 09:34:48;;;;;;;7.45;4.93;;;;;;;29.96;34.32;66179.47;5049920;28;20678;-52
2023/09/03 09:37:14;;;;;;;10.07;6.40;;;;;;;29.72;34.54;66153.28;5049577;28;20252;-51
2023/09/03 09:39:44;;;;;;;5.65;4.57;;;;;;;29.57;34.41;66131.38;5031886;28;20693;-50
2023/09/03 09:42:12;;;;;;;5.45;4.90;;;;;;;29.77;34.67;66158.88;5049755;28;20710;-51
2023/09/03 09:44:54;;;;;;;8.82;6.50;;;;;;;29.97;34.66;66177.97;5049764;28;20205;-53
2023/09/03 09:47:21;;;;;;;6.82;5.20;;;;;;;30.34;32.04;66216.66;5050074;28;20201;-51
2023/09/03 09:49:47;;;;;;;6.38;5.40;;;;;;;30.36;32.40;66221.47;5049776;28;20256;-51
2023/09/03 09:52:14;;;;;;;11.93;8.40;;;;;;;30.27;33.23;66208.81;5049969;28;20216;-50
2023/09/03 09:54:42;;;;;;;4.88;4.45;;;;;;;29.85;32.20;66165.19;5033019;28;20212;-52
2023/09/03 09:57:14;;;;;;;6.25;5.32;;;;;;;29.71;32.60;66150.13;5053075;28;20205;-55
2023/09/03 09:59:44;;;;;;;7.40;4.95;;;;;;;30.53;32.91;66243.56;5053460;28;20262;-51
2023/09/03 10:02:15;;;;;;;5.25;4.75;;;;;;;30.76;32.46;66265.50;5035059;28;20696;-51
2023/09/03 10:04:43;;;;;;;5.80;5.03;;;;;;;31.45;32.02;66339.91;5053242;28;20212;-51
2023/09/03 10:07:10;;;;;;;6.50;5.25;;;;;;;31.72;30.51;66372.63;5052962;28;20242;-53
2023/09/03 10:09:35;;;;;;;37.92;9.82;;;;;;;31.86;30.09;66385.63;5052897;28;20206;-54
2023/09/03 10:12:02;;;;;;;5.68;5.05;;;;;;;32.38;30.14;66445.75;5053256;28;20258;-50
2023/09/03 10:14:28;;;;;;;7.07;5.05;;;;;;;32.72;30.07;66481.13;5053248;28;20284;-51
2023/09/03 10:16:56;;;;;;;8.18;6.05;;;;;;;32.59;28.65;66466.59;5052825;28;20612;-51
2023/09/03 10:19:27;;;;;;;5.70;5.10;;;;;;;32.96;28.10;66510.56;5052796;28;20209;-51
2023/09/03 10:21:58;;;;;;;6.20;4.60;;;;;;;32.96;28.98;66510.56;5052787;28;20648;-51
2023/09/03 10:24:26;;;;;;;7.25;4.82;;;;;;;33.18;29.61;66531.41;5052915;28;20221;-51
2023/09/03 10:26:57;;;;;;;5.22;4.72;;;;;;;33.26;28.37;66540.91;5052771;28;20326;-51
2023/09/03 10:29:25;;;;;;;5.55;5.05;;;;;;;33.47;29.12;66566.44;5052711;28;20253;-51
2023/09/03 10:31:53;;;;;;;7.57;6.85;;;;;;;32.58;27.79;66465.50;5052856;28;20206;-50
2023/09/03 10:34:19;;;;;;;6.22;4.93;;;;;;;32.43;27.96;66448.72;5052460;28;20198;-57
2023/09/03 10:37:04;;;;;;;4.93;4.35;;;;;;;32.71;29.08;66482.63;5052682;28;20216;-51
2023/09/03 10:39:30;;;;;;;5.85;4.07;;;;;;;32.53;27.78;66461.97;5052620;28;20205;-60
2023/09/03 10:42:15;;;;;;;5.30;4.55;;;;;;;32.15;28.29;66420.63;5052429;28;20267;-51
2023/09/03 10:44:42;;;;;;;5.57;4.40;;;;;;;31.80;29.33;66378.38;5052562;28;20221;-52
2023/09/03 10:47:07;;;;;;;5.40;4.80;;;;;;;32.09;28.89;66411.34;5052377;28;20217;-51
2023/09/03 10:49:47;;;;;;;6.97;4.25;;;;;;;31.97;28.21;66397.38;5052209;28;20240;-50
2023/09/03 10:52:32;;;;;;;5.38;4.38;;;;;;;32.55;28.18;66458.97;5052294;28;20209;-50
2023/09/03 10:55:17;;;;;;;5.28;4.25;;;;;;;33.13;29.19;66528.44;5052548;28;20206;-52
2023/09/03 10:57:48;;;;;;;10.68;9.45;;;;;;;33.26;28.01;66543.53;5052151;28;20225;-60
2023/09/03 11:00:18;;;;;;;5.50;4.88;;;;;;;33.50;28.83;66570.34;5052382;28;20287;-51
2023/09/03 11:02:45;;;;;;;4.72;4.28;;;;;;;33.34;28.07;66551.91;5051486;28;20226;-50
2023/09/03 11:05:15;;;;;;;4.82;4.32;;;;;;;33.52;28.42;66569.41;5052038;28;20281;-51
2023/09/03 11:07:45;;;;;;;7.18;4.40;;;;;;;33.19;27.38;66532.53;5034188;28;20213;-50
2023/09/03 11:10:28;;;;;;;4.38;4.00;;;;;;;32.25;27.45;66431.81;5051993;28;20197;-51
2023/09/03 11:12:54;;;;;;;4.40;4.10;;;;;;;32.42;27.91;66449.66;5033974;28;20240;-51
2023/09/03 11:15:20;;;;;;;5.13;4.63;;;;;;;32.29;28.31;66438.31;5052046;28;20280;-51
2023/09/03 11:17:55;;;;;;;4.80;4.40;;;;;;;32.28;28.68;66432.53;5051816;28;20210;-52
2023/09/03 11:20:31;;;;;;;4.80;4.00;;;;;;;31.99;28.69;66399.59;5051788;28;20212;-51
2023/09/03 11:23:01;;;;;;;4.55;4.15;;;;;;;32.12;29.53;66416.72;5051785;28;20208;-51
2023/09/03 11:25:35;;;;;;;4.57;4.18;;;;;;;32.97;29.45;66509.06;5051962;28;20205;-52
2023/09/03 11:28:00;;;;;;;9.27;5.22;;;;;;;33.09;28.51;66521.91;5051709;28;20221;-51
2023/09/03 11:30:26;;;;;;;5.70;4.18;;;;;;;33.75;28.53;66600.34;5051804;28;20198;-51
2023/09/03 11:32:52;;;;;;;4.32;3.92;;;;;;;33.40;27.70;66559.16;5051302;28;20209;-51
2023/09/03 11:35:18;;;;;;;4.50;4.10;;;;;;;32.28;28.23;66431.44;5051447;28;20267;-51